Time;durP1;ratioP1;P1;durP2;ratioP2;P2;SDS_P1;SDS_P2;PMS_P1;PMS_P2;Temp;Humidity;BMP_temperature;BMP_pressure;BME280_temperature;BME280_humidity;BME280_pressure;Samples;Min_cycle;Max_cycle;Signal;HPM_P1;HPM_P2
2022/10/23 00:01:00;;;;;;;6.32;1.52;;;;;;;13.92;96.25;100025.13;5052773;28;20094;-89
2022/10/23 00:03:26;;;;;;;4.75;1.40;;;;;;;13.90;96.45;100025.50;5053782;28;20040;-89
2022/10/23 00:05:51;;;;;;;3.65;1.15;;;;;;;13.87;96.81;100017.22;5053961;28;20024;-89
2022/10/23 00:08:17;;;;;;;;;;;;;;;13.98;96.40;100021.75;5053481;28;20495;-89
2022/10/23 00:10:42;;;;;;;6.18;1.42;;;;;;;14.01;95.90;100025.72;5053659;28;20064;-87
2022/10/23 00:13:08;;;;;;;4.60;1.35;;;;;;;14.07;95.48;100027.81;5053288;28;20028;-89
2022/10/23 00:15:34;;;;;;;;;;;;;;;13.94;96.06;100028.28;5054018;28;20165;-89
2022/10/23 00:18:00;;;;;;;3.10;0.93;;;;;;;13.90;96.38;100027.44;5051816;28;19909;-89
2022/10/23 00:20:25;;;;;;;3.80;1.45;;;;;;;13.82;97.00;100021.03;5053382;28;20460;-89
2022/10/23 00:22:50;;;;;;;;;;;;;;;14.09;95.56;100022.75;5052387;28;20029;-90
2022/10/23 00:25:17;;;;;;;5.63;1.17;;;;;;;13.91;96.04;100021.59;5052769;28;19912;-89
2022/10/23 00:27:43;;;;;;;3.20;1.10;;;;;;;13.83;96.67;100026.13;5052912;28;20035;-87
2022/10/23 00:30:08;;;;;;;3.63;1.13;;;;;;;13.82;97.00;100023.75;5051617;28;20106;-88
2022/10/23 00:32:34;;;;;;;;;;;;;;;13.74;97.48;100019.28;5052133;28;20065;-90
2022/10/23 00:35:00;;;;;;;3.35;1.17;;;;;;;13.73;97.46;100009.47;5051759;28;19908;-88
2022/10/23 00:37:25;;;;;;;3.20;1.10;;;;;;;13.94;96.40;100009.94;5052717;28;20090;-87
2022/10/23 00:39:51;;;;;;;;;;;;;;;14.12;95.20;100019.31;5055090;28;20057;-88
2022/10/23 00:42:18;;;;;;;2.85;1.00;;;;;;;13.93;96.40;100019.28;5053354;28;19913;-87
2022/10/23 00:44:46;;;;;;;3.50;1.50;;;;;;;13.83;96.80;100019.88;5053071;28;20097;-88
2022/10/23 00:47:12;;;;;;;6.50;1.70;;;;;;;13.79;97.13;100014.34;5034649;28;20021;-88
2022/10/23 00:49:38;;;;;;;7.47;1.38;;;;;;;14.00;96.57;100015.94;5034604;28;20029;-88
2022/10/23 00:52:10;;;;;;;3.15;1.20;;;;;;;14.22;94.37;100012.44;5036988;28;20453;-89
2022/10/23 00:54:39;;;;;;;1.95;0.82;;;;;;;14.15;94.97;100026.81;5038590;28;20040;-88
2022/10/23 00:57:07;;;;;;;7.00;1.23;;;;;;;14.12;94.56;100008.38;5038801;28;20045;-87
2022/10/23 00:59:34;;;;;;;5.15;1.08;;;;;;;13.92;95.29;100006.75;5056821;28;20056;-88
2022/10/23 01:01:59;;;;;;;4.38;1.77;;;;;;;13.70;96.13;99997.31;5057907;28;20115;-88
2022/10/23 01:04:26;;;;;;;4.78;1.50;;;;;;;13.55;97.13;100004.41;5056719;28;20116;-89
2022/10/23 01:07:17;;;;;;;4.72;1.40;;;;;;;13.49;97.76;100002.31;5056605;28;20025;-88
2022/10/23 01:09:52;;;;;;;4.57;1.40;;;;;;;13.43;97.70;100001.78;5056591;28;20032;-88
2022/10/23 01:12:32;;;;;;;3.83;1.55;;;;;;;13.38;98.05;99996.59;5056124;28;20043;-87
2022/10/23 01:15:20;;;;;;;4.40;1.80;;;;;;;13.29;98.27;99998.75;5037626;28;20043;-87
2022/10/23 01:18:11;;;;;;;5.07;1.20;;;;;;;13.23;98.66;99991.94;5056174;28;20033;-88
2022/10/23 01:20:52;;;;;;;3.75;1.50;;;;;;;13.22;98.64;99995.84;5056238;28;20057;-88
2022/10/23 01:23:34;;;;;;;3.42;1.20;;;;;;;13.25;98.42;99989.66;5056336;28;20513;-87
2022/10/23 01:26:32;;;;;;;3.60;1.38;;;;;;;13.20;98.70;99995.41;5056051;28;20029;-89
2022/10/23 01:29:27;;;;;;;4.07;1.30;;;;;;;13.20;98.90;100000.88;5056386;28;20104;-87
2022/10/23 01:32:25;;;;;;;3.70;1.33;;;;;;;13.18;98.93;99989.50;5038014;28;20021;-87
2022/10/23 01:35:00;;;;;;;5.85;2.08;;;;;;;13.28;98.67;99993.63;5038099;28;20049;-87
2022/10/23 01:37:34;;;;;;;3.88;1.40;;;;;;;13.27;98.42;99997.50;5055768;28;20036;-88
2022/10/23 01:40:04;;;;;;;5.20;1.50;;;;;;;13.31;98.19;99992.94;5052387;28;20521;-88
2022/10/23 01:42:37;;;;;;;4.43;1.38;;;;;;;13.38;97.83;99993.88;5037516;28;20091;-87
2022/10/23 01:45:12;;;;;;;2.97;1.33;;;;;;;13.38;97.82;99982.94;5037768;28;20029;-88
2022/10/23 01:47:38;;;;;;;4.88;1.40;;;;;;;13.47;97.46;99985.47;5055260;28;20044;-88
2022/10/23 01:50:06;;;;;;;3.92;1.48;;;;;;;13.50;96.96;99980.09;5055994;28;20032;-88
2022/10/23 01:52:32;;;;;;;9.20;1.60;;;;;;;13.50;96.99;99963.66;5038240;28;20064;-88
2022/10/23 01:54:59;;;;;;;5.30;1.70;;;;;;;13.49;97.31;99972.25;5038295;28;20025;-87
2022/10/23 01:57:28;;;;;;;3.17;1.20;;;;;;;13.50;96.95;99963.66;5037207;28;20025;-86
2022/10/23 02:00:15;;;;;;;2.78;1.17;;;;;;;13.57;97.04;99956.75;5037015;28;20021;-87
2022/10/23 02:02:42;;;;;;;;;;;;;;;13.54;96.81;99947.31;5036662;28;20029;-88
2022/10/23 02:05:17;;;;;;;3.55;1.60;;;;;;;13.53;96.99;99948.47;5037308;28;19958;-87
2022/10/23 02:07:43;;;;;;;4.43;1.27;;;;;;;13.55;96.69;99944.22;5055436;28;20048;-89
2022/10/23 02:10:09;;;;;;;4.88;1.17;;;;;;;13.49;97.07;99936.69;5037729;28;20025;-88
2022/10/23 02:12:51;;;;;;;4.78;1.30;;;;;;;13.60;96.70;99943.16;5037993;28;20052;-88
2022/10/23 02:15:27;;;;;;;4.80;1.65;;;;;;;13.59;96.79;99943.50;5038527;28;20029;-88
2022/10/23 02:18:20;;;;;;;3.75;1.63;;;;;;;13.63;96.43;99938.94;5039017;28;20423;-89
2022/10/23 02:20:53;;;;;;;5.10;1.20;;;;;;;13.60;96.50;99939.63;5054985;28;20537;-88
2022/10/23 02:23:41;;;;;;;4.72;1.52;;;;;;;13.58;96.46;99941.94;5054807;28;20107;-88
2022/10/23 02:26:23;;;;;;;4.25;1.13;;;;;;;13.50;96.77;99936.31;5036913;28;20024;-89
2022/10/23 02:28:54;;;;;;;2.42;1.00;;;;;;;13.46;96.70;99935.47;5037297;28;20147;-87
2022/10/23 02:31:22;;;;;;;3.22;0.90;;;;;;;13.33;97.29;99930.47;5055077;28;20111;-88
2022/10/23 02:33:47;;;;;;;6.65;2.47;;;;;;;13.28;98.09;99920.59;5055550;28;20021;-88
2022/10/23 02:36:14;;;;;;;4.30;1.17;;;;;;;13.31;97.50;99927.28;5037148;28;20021;-89
2022/10/23 02:38:43;;;;;;;3.05;1.30;;;;;;;13.39;97.72;99923.56;5054990;28;20057;-89
2022/10/23 02:41:33;;;;;;;3.00;1.80;;;;;;;13.32;97.63;99923.41;5036656;28;20035;-87
2022/10/23 02:44:25;;;;;;;4.32;1.10;;;;;;;13.31;97.80;99917.16;5052184;28;20482;-88
2022/10/23 02:47:11;;;;;;;4.07;1.40;;;;;;;13.26;97.82;99917.41;5054893;28;20139;-87
2022/10/23 02:50:19;;;;;;;4.43;1.73;;;;;;;13.27;98.28;99910.00;5054464;28;20458;-88
2022/10/23 02:53:13;;;;;;;4.25;1.08;;;;;;;13.23;98.26;99899.00;5036286;28;20041;-87
2022/10/23 02:55:55;;;;;;;4.47;1.73;;;;;;;13.27;98.45;99902.63;5036573;28;20029;-88
2022/10/23 02:58:43;;;;;;;4.07;1.55;;;;;;;13.29;98.19;99907.72;5036096;28;20083;-89
2022/10/23 03:01:19;;;;;;;2.75;1.33;;;;;;;13.38;98.25;99909.09;5054061;28;20044;-89
2022/10/23 03:03:52;;;;;;;5.47;1.52;;;;;;;13.34;97.99;99893.75;5036719;28;20389;-88
2022/10/23 03:06:20;;;;;;;3.92;1.38;;;;;;;13.30;98.42;99890.97;5054539;28;20029;-88
2022/10/23 03:09:05;;;;;;;3.88;1.17;;;;;;;13.35;98.30;99892.63;5020475;28;20049;-88
2022/10/23 03:11:31;;;;;;;5.15;2.05;;;;;;;13.52;97.89;99886.72;5054240;28;20016;-87
2022/10/23 03:13:56;;;;;;;3.28;1.17;;;;;;;13.42;97.76;99882.59;5035928;28;20043;-87
2022/10/23 03:16:21;;;;;;;5.70;1.42;;;;;;;13.41;97.77;99885.69;5053774;28;20086;-87
2022/10/23 03:18:47;;;;;;;;;;;;;;;13.38;97.58;99887.22;5053643;28;20031;-89
2022/10/23 03:21:12;;;;;;;3.13;1.10;;;;;;;13.27;98.32;99880.75;5053178;28;19963;-87
2022/10/23 03:23:37;;;;;;;;;;;;;;;13.23;98.44;99875.19;5036244;28;20029;-88
2022/10/23 03:26:03;;;;;;;2.90;1.10;;;;;;;13.22;98.87;99865.41;5053838;28;20339;-87
2022/10/23 03:28:28;;;;;;;2.85;1.05;;;;;;;13.20;98.86;99864.16;5053685;28;20271;-87
2022/10/23 03:30:54;;;;;;;;;;;;;;;13.28;98.67;99854.97;5054347;28;20017;-87
2022/10/23 03:33:20;;;;;;;3.25;1.27;;;;;;;13.24;98.40;99851.38;5055065;28;19991;-89
2022/10/23 03:35:47;;;;;;;3.58;1.25;;;;;;;13.17;98.86;99862.91;5037889;28;20048;-89
2022/10/23 03:38:12;;;;;;;8.13;1.65;;;;;;;13.12;98.82;99854.22;5055917;28;20053;-89
2022/10/23 03:40:38;;;;;;;3.03;0.97;;;;;;;13.08;98.90;99854.13;5057444;28;20500;-89
2022/10/23 03:43:03;;;;;;;;;;;;;;;13.04;99.09;99853.25;5044052;28;20033;-92
2022/10/23 03:45:29;;;;;;;5.23;1.37;;;;;;;13.05;99.28;99848.59;5057390;28;19940;-88
2022/10/23 03:47:55;;;;;;;4.05;1.45;;;;;;;13.03;99.44;99845.41;5075524;28;20314;-90
2022/10/23 03:50:20;;;;;;;3.08;1.35;;;;;;;13.01;99.60;99831.31;5069878;28;20382;-89
2022/10/23 03:52:45;;;;;;;;;;;;;;;13.03;99.71;99835.28;5062563;28;20114;-90
2022/10/23 03:55:11;;;;;;;3.30;1.30;;;;;;;13.11;99.39;99830.78;5056639;28;19918;-86
2022/10/23 03:57:38;;;;;;;3.35;1.25;;;;;;;13.12;99.39;99835.09;5036039;28;20102;-88
2022/10/23 04:00:05;;;;;;;4.25;1.40;;;;;;;13.15;99.10;99831.63;5035122;28;20033;-89
2022/10/23 04:02:31;;;;;;;4.55;1.17;;;;;;;13.19;99.12;99827.84;5052307;28;20133;-86
2022/10/23 04:04:56;;;;;;;3.80;1.40;;;;;;;13.35;98.08;99833.25;5052924;28;20115;-87
2022/10/23 04:07:21;;;;;;;7.32;1.75;;;;;;;13.35;97.81;99827.78;5035382;28;20033;-88
2022/10/23 04:09:47;;;;;;;;;;;;;;;13.36;97.79;99831.31;5053491;28;20021;-89
2022/10/23 04:12:12;;;;;;;4.20;1.17;;;;;;;13.38;97.84;99831.72;5053150;28;19947;-89
2022/10/23 04:14:38;;;;;;;3.38;1.20;;;;;;;13.36;97.88;99832.09;5053334;28;20111;-88
2022/10/23 04:17:04;;;;;;;2.85;1.00;;;;;;;13.41;97.70;99836.47;5035009;28;20033;-87
2022/10/23 04:19:31;;;;;;;4.93;1.15;;;;;;;13.47;97.18;99838.56;5052850;28;20021;-87
2022/10/23 04:21:57;;;;;;;7.28;1.98;;;;;;;13.47;96.97;99838.56;5052809;28;20482;-87
2022/10/23 04:24:23;;;;;;;3.05;1.10;;;;;;;13.49;97.12;99841.75;5034894;28;20108;-85
2022/10/23 04:26:50;;;;;;;1.77;0.90;;;;;;;13.49;96.94;99841.75;5056904;28;20053;-87
2022/10/23 04:29:15;;;;;;;4.07;1.45;;;;;;;13.45;96.95;99840.88;5059331;28;20067;-86
2022/10/23 04:31:40;;;;;;;;;;;;;;;13.42;96.96;99835.31;5059420;28;20033;-87
2022/10/23 04:34:06;;;;;;;2.40;0.83;;;;;;;13.38;97.31;99837.19;5059006;28;20353;-87
2022/10/23 04:36:31;;;;;;;;;;;;;;;13.37;97.62;99828.19;5059258;28;20108;-88
2022/10/23 04:38:56;;;;;;;3.83;0.95;;;;;;;13.39;97.17;99819.63;5049490;28;19916;-87
2022/10/23 04:41:22;;;;;;;;;;;;;;;13.37;97.61;99819.22;5059105;28;20040;-88
2022/10/23 04:43:47;;;;;;;4.20;0.95;;;;;;;13.31;97.83;99810.50;5058978;28;19912;-87
2022/10/23 04:46:12;;;;;;;;;;;;;;;13.31;97.65;99805.03;5059225;28;20029;-88
2022/10/23 04:48:37;;;;;;;2.73;1.10;;;;;;;13.38;97.38;99812.59;5057779;28;19972;-88
2022/10/23 04:51:05;;;;;;;2.78;1.10;;;;;;;13.37;97.17;99814.53;5058872;28;20270;-87
2022/10/23 04:53:31;;;;;;;3.63;1.23;;;;;;;13.37;97.53;99811.78;5058999;28;20490;-88
2022/10/23 04:55:57;;;;;;;4.90;1.15;;;;;;;13.40;97.32;99802.88;5057584;28;20092;-87
2022/10/23 04:58:27;;;;;;;3.08;1.02;;;;;;;13.42;96.90;99797.03;5057798;28;20126;-89
2022/10/23 05:00:53;;;;;;;3.75;1.05;;;;;;;13.40;97.05;99789.19;5059015;28;20021;-87
2022/10/23 05:03:18;;;;;;;4.35;1.20;;;;;;;13.37;97.02;99795.38;5059354;28;20163;-91
2022/10/23 05:05:44;;;;;;;3.78;1.20;;;;;;;13.24;97.73;99792.00;5059378;28;20035;-86
2022/10/23 05:08:10;;;;;;;3.78;1.20;;;;;;;13.30;97.64;99795.25;5057614;28;20366;-86
2022/10/23 05:10:37;;;;;;;;;;;;;;;13.33;97.69;99793.75;5058091;28;20025;-88
2022/10/23 05:13:03;;;;;;;2.80;1.17;;;;;;;13.32;97.32;99786.69;5058805;28;20270;-87
2022/10/23 05:15:28;;;;;;;;;;;;;;;13.37;97.25;99789.91;5058902;28;20488;-88
2022/10/23 05:18:00;;;;;;;3.92;1.00;;;;;;;13.41;97.02;99787.25;5057133;28;19920;-86
2022/10/23 05:20:29;;;;;;;4.97;1.60;;;;;;;13.46;96.69;99786.97;5057099;28;20037;-87
2022/10/23 05:22:57;;;;;;;3.58;1.05;;;;;;;13.54;96.23;99794.94;5058609;28;20076;-87
2022/10/23 05:25:22;;;;;;;2.28;1.00;;;;;;;13.60;95.90;99783.69;5057572;28;20028;-88
2022/10/23 05:27:48;;;;;;;2.05;0.90;;;;;;;13.64;95.57;99779.09;5058512;28;20029;-89
2022/10/23 05:30:13;;;;;;;;;;;;;;;13.63;95.28;99772.03;5060178;28;20094;-88
2022/10/23 05:32:39;;;;;;;4.80;1.00;;;;;;;13.57;95.84;99777.00;5058847;28;19909;-88
2022/10/23 05:35:08;;;;;;;;;;;;;;;13.58;95.94;99767.66;5060246;28;20199;-91
2022/10/23 05:37:37;;;;;;;2.05;0.90;;;;;;;13.57;95.89;99779.75;5056033;28;19915;-88
2022/10/23 05:40:03;;;;;;;2.95;1.30;;;;;;;13.57;95.68;99771.53;5055744;28;20056;-87
2022/10/23 05:42:31;;;;;;;2.60;1.10;;;;;;;13.59;95.59;99768.44;5055756;28;20051;-86
2022/10/23 05:44:56;;;;;;;7.47;1.67;;;;;;;13.58;95.88;99766.84;5056085;28;20470;-87
2022/10/23 05:47:22;;;;;;;3.53;1.30;;;;;;;13.52;96.30;99758.94;5037981;28;20051;-86
2022/10/23 05:49:47;;;;;;;;;;;;;;;13.54;96.07;99759.38;5055622;28;20028;-88
2022/10/23 05:52:12;;;;;;;2.10;0.87;;;;;;;13.62;95.80;99752.09;5054900;28;19912;-88
2022/10/23 05:54:38;;;;;;;5.83;1.10;;;;;;;13.67;95.58;99753.75;5055101;28;20297;-88
2022/10/23 05:57:03;;;;;;;2.67;0.90;;;;;;;13.78;95.15;99754.72;5055128;28;20350;-89
2022/10/23 05:59:28;;;;;;;;;;;;;;;13.76;95.20;99754.28;5037312;28;20033;-87
2022/10/23 06:01:54;;;;;;;2.03;0.87;;;;;;;13.81;95.05;99743.84;5054614;28;20039;-87
2022/10/23 06:04:19;;;;;;;4.15;1.00;;;;;;;13.82;94.91;99733.69;5054990;28;20268;-86
2022/10/23 06:06:45;;;;;;;;;;;;;;;13.84;95.09;99740.38;5055339;28;20485;-87
2022/10/23 06:09:11;;;;;;;3.17;1.00;;;;;;;13.85;94.93;99738.44;5055175;28;19935;-86
2022/10/23 06:11:37;;;;;;;;;;;;;;;13.83;94.83;99735.25;5055194;28;20369;-84
2022/10/23 06:14:03;;;;;;;5.13;1.52;;;;;;;13.84;95.18;99734.09;5036409;28;19909;-83
2022/10/23 06:16:28;;;;;;;2.05;0.82;;;;;;;13.90;95.05;99734.59;5036445;28;20402;-84
2022/10/23 06:18:54;;;;;;;;;;;;;;;13.87;94.61;99725.16;5036668;28;20037;-83
2022/10/23 06:21:25;;;;;;;2.38;0.90;;;;;;;13.89;94.72;99728.31;5036262;28;19954;-82
2022/10/23 06:23:51;;;;;;;3.38;1.13;;;;;;;13.88;94.72;99718.53;5036298;28;20041;-83
2022/10/23 06:26:18;;;;;;;3.63;0.90;;;;;;;13.80;95.18;99720.38;5053713;28;20037;-82
2022/10/23 06:28:44;;;;;;;4.35;1.15;;;;;;;13.89;95.24;99725.59;5053934;28;20078;-84
2022/10/23 06:31:12;;;;;;;3.97;0.88;;;;;;;13.92;94.80;99721.31;5054265;28;20017;-85
2022/10/23 06:33:38;;;;;;;4.95;0.98;;;;;;;13.91;94.51;99719.75;5053407;28;20029;-87
2022/10/23 06:36:05;;;;;;;5.47;1.10;;;;;;;13.95;94.47;99723.34;5036149;28;20036;-88
2022/10/23 06:38:35;;;;;;;2.47;0.98;;;;;;;14.00;94.41;99734.75;5053712;28;20068;-87
2022/10/23 06:41:02;;;;;;;3.63;1.17;;;;;;;13.99;94.38;99727.72;5054193;28;20104;-86
2022/10/23 06:43:27;;;;;;;4.28;0.98;;;;;;;14.04;94.24;99724.66;5035640;28;20021;-85
2022/10/23 06:45:52;;;;;;;4.78;1.17;;;;;;;14.09;93.61;99726.28;5035756;28;20044;-85
2022/10/23 06:48:18;;;;;;;2.47;0.90;;;;;;;14.17;93.44;99722.50;5035516;28;20036;-88
2022/10/23 06:50:43;;;;;;;;;;;;;;;14.23;93.03;99720.25;5053380;28;20021;-83
2022/10/23 06:53:11;;;;;;;3.30;1.13;;;;;;;14.26;92.65;99722.25;5053572;28;20011;-83
2022/10/23 06:55:40;;;;;;;3.03;1.00;;;;;;;14.35;92.11;99731.00;5053793;28;20025;-85
2022/10/23 06:58:09;;;;;;;2.40;0.90;;;;;;;14.44;91.71;99720.56;5035516;28;20078;-85
2022/10/23 07:00:38;;;;;;;2.95;0.98;;;;;;;14.46;91.27;99723.75;5035441;28;20060;-85
2022/10/23 07:03:12;;;;;;;2.70;0.90;;;;;;;14.51;90.88;99719.91;5053806;28;20037;-85
2022/10/23 07:05:37;;;;;;;2.83;0.98;;;;;;;14.52;90.45;99718.75;5031293;28;20035;-85
2022/10/23 07:08:05;;;;;;;3.00;1.00;;;;;;;14.52;90.57;99721.47;5053075;28;20112;-88
2022/10/23 07:10:31;;;;;;;2.40;0.82;;;;;;;14.52;90.84;99719.53;5053307;28;20428;-85
2022/10/23 07:12:59;;;;;;;3.15;1.00;;;;;;;14.56;90.77;99711.34;5052779;28;20027;-85
2022/10/23 07:15:26;;;;;;;2.42;0.90;;;;;;;14.54;90.40;99708.97;5053345;28;20040;-85
2022/10/23 07:17:52;;;;;;;2.58;0.98;;;;;;;14.57;90.08;99702.75;5053353;28;20029;-84
2022/10/23 07:20:17;;;;;;;1.77;0.70;;;;;;;14.63;89.53;99706.78;5053093;28;20491;-83
2022/10/23 07:22:43;;;;;;;;;;;;;;;14.63;89.11;99705.97;5053619;28;20064;-84
2022/10/23 07:25:09;;;;;;;3.35;1.00;;;;;;;14.66;89.33;99706.03;5034909;28;20297;-84
2022/10/23 07:27:38;;;;;;;3.03;1.25;;;;;;;14.70;89.20;99701.38;5053340;28;20040;-85
2022/10/23 07:30:04;;;;;;;2.13;0.80;;;;;;;14.70;88.55;99703.31;5053110;28;20072;-82
2022/10/23 07:32:29;;;;;;;3.33;1.02;;;;;;;14.71;88.33;99697.47;5051937;28;20571;-83
2022/10/23 07:34:54;;;;;;;3.60;1.23;;;;;;;14.77;88.04;99705.34;5052767;28;20040;-82
2022/10/23 07:37:19;;;;;;;;;;;;;;;14.83;87.70;99692.91;5053547;28;20059;-81
2022/10/23 07:39:46;;;;;;;1.80;0.73;;;;;;;14.87;87.36;99693.75;5049428;28;20414;-85
2022/10/23 07:42:11;;;;;;;;;;;;;;;14.87;87.54;99694.53;5051791;28;20286;-83
2022/10/23 07:44:36;;;;;;;1.80;0.77;;;;;;;14.83;88.08;99692.91;5052250;28;20285;-84
2022/10/23 07:47:01;;;;;;;2.97;0.70;;;;;;;14.80;88.51;99682.72;5052896;28;20275;-84
2022/10/23 07:49:27;;;;;;;2.60;0.80;;;;;;;14.79;88.90;99686.63;5052939;28;20025;-83
2022/10/23 07:51:52;;;;;;;2.78;0.95;;;;;;;14.79;88.58;99681.91;5052505;28;20033;-84
2022/10/23 07:54:18;;;;;;;;;;;;;;;14.81;88.81;99679.59;5053394;28;20021;-83
2022/10/23 07:56:43;;;;;;;4.25;1.10;;;;;;;14.89;88.00;99685.94;5052168;28;19917;-84
2022/10/23 07:59:11;;;;;;;;;;;;;;;14.94;87.59;99685.59;5056000;28;20035;-82
2022/10/23 08:01:41;;;;;;;2.97;0.80;;;;;;;14.97;87.62;99687.59;5050780;28;19935;-82
2022/10/23 08:04:10;;;;;;;2.75;1.27;;;;;;;15.03;87.40;99689.63;5052436;28;20033;-83
2022/10/23 08:06:35;;;;;;;4.90;1.77;;;;;;;15.10;86.47;99686.16;5049159;28;20116;-82
2022/10/23 08:09:00;;;;;;;2.85;0.98;;;;;;;15.15;86.24;99682.31;5052139;28;20155;-83
2022/10/23 08:11:27;;;;;;;;;;;;;;;15.18;85.78;99687.84;5051478;28;20037;-82
2022/10/23 08:13:54;;;;;;;6.35;1.08;;;;;;;15.26;85.04;99677.72;5052346;28;20362;-78
2022/10/23 08:16:20;;;;;;;5.03;0.95;;;;;;;15.31;84.27;99669.97;5052031;28;20446;-79
2022/10/23 08:18:50;;;;;;;2.78;1.08;;;;;;;15.49;84.06;99670.13;5051894;28;20039;-79
2022/10/23 08:21:16;;;;;;;5.28;1.08;;;;;;;15.56;83.07;99666.63;5050720;28;20409;-79
2022/10/23 08:23:42;;;;;;;2.30;0.88;;;;;;;15.60;83.19;99671.00;5051778;28;20029;-80
2022/10/23 08:26:08;;;;;;;2.55;1.00;;;;;;;15.67;82.58;99656.59;5052008;28;20025;-80
2022/10/23 08:28:34;;;;;;;;;;;;;;;15.74;82.15;99651.13;5051018;28;20117;-79
2022/10/23 08:31:08;;;;;;;1.98;0.70;;;;;;;15.80;81.38;99651.59;5052165;28;19909;-85
2022/10/23 08:33:34;;;;;;;2.42;0.80;;;;;;;15.90;81.10;99656.34;5051334;28;20505;-83
2022/10/23 08:35:59;;;;;;;;;;;;;;;15.96;80.44;99649.34;5051163;28;20025;-84
2022/10/23 08:38:25;;;;;;;2.03;0.77;;;;;;;16.02;80.29;99658.00;5050600;28;19924;-85
2022/10/23 08:40:51;;;;;;;;;;;;;;;16.11;79.74;99666.69;5052408;28;20287;-84
2022/10/23 08:43:49;;;;;;;1.83;0.90;;;;;;;16.16;79.21;99658.09;5051764;28;19955;-83
2022/10/23 08:46:18;;;;;;;2.35;0.70;;;;;;;16.29;78.32;99658.56;5049639;28;20045;-84
2022/10/23 08:48:50;;;;;;;3.13;0.80;;;;;;;16.35;77.78;99655.06;5052252;28;20025;-84
2022/10/23 08:51:28;;;;;;;1.75;0.65;;;;;;;16.40;77.93;99662.94;5053142;28;20105;-85
2022/10/23 08:54:05;;;;;;;2.05;0.60;;;;;;;16.48;77.80;99653.59;5051925;28;20029;-83
2022/10/23 08:56:36;;;;;;;1.70;0.70;;;;;;;16.58;77.71;99654.00;5050573;28;20032;-83
2022/10/23 08:59:19;;;;;;;3.35;1.13;;;;;;;16.65;77.65;99640.31;5051508;28;20138;-83
2022/10/23 09:02:03;;;;;;;1.98;0.77;;;;;;;16.77;76.99;99642.72;5050717;28;20428;-84
2022/10/23 09:04:29;;;;;;;3.05;1.40;;;;;;;16.73;76.93;99628.97;5050586;28;20489;-84
2022/10/23 09:07:28;;;;;;;2.78;1.05;;;;;;;16.77;76.86;99632.50;5053277;28;20100;-83
2022/10/23 09:10:10;;;;;;;1.60;0.70;;;;;;;16.82;77.20;99637.66;5051547;28;20119;-84
2022/10/23 09:12:36;;;;;;;2.58;1.00;;;;;;;16.87;76.68;99624.69;5054036;28;20051;-84
2022/10/23 09:15:23;;;;;;;;;;;;;;;16.90;76.42;99630.19;5056102;28;20482;-83
2022/10/23 09:17:59;;;;;;;2.60;0.90;;;;;;;16.92;75.35;99627.84;5056931;28;19908;-84
2022/10/23 09:20:39;;;;;;;3.63;0.80;;;;;;;16.92;75.07;99605.06;5056840;28;20033;-84
2022/10/23 09:23:20;;;;;;;2.20;0.80;;;;;;;16.98;75.37;99609.81;5038463;28;20037;-83
2022/10/23 09:25:54;;;;;;;1.95;0.65;;;;;;;16.94;75.75;99594.44;5056883;28;20040;-84
2022/10/23 09:28:43;;;;;;;3.42;1.05;;;;;;;16.96;75.35;99592.88;5056670;28;20155;-83
2022/10/23 09:31:11;;;;;;;2.63;1.25;;;;;;;16.98;75.69;99598.81;5054664;28;20191;-80
2022/10/23 09:33:37;;;;;;;2.15;0.80;;;;;;;17.01;75.22;99589.75;5055285;28;20470;-81
2022/10/23 09:36:04;;;;;;;;;;;;;;;17.12;75.52;99596.03;5056329;28;20071;-80
2022/10/23 09:38:35;;;;;;;3.20;0.70;;;;;;;17.12;75.36;99587.78;5054925;28;19920;-83
2022/10/23 09:41:18;;;;;;;2.28;0.73;;;;;;;17.05;74.96;99590.53;5056279;28;20039;-82
2022/10/23 09:43:44;;;;;;;2.58;0.88;;;;;;;17.09;75.24;99582.28;5054743;28;20056;-84
2022/10/23 09:46:10;;;;;;;;;;;;;;;17.18;74.24;99585.47;5054419;28;20486;-82
2022/10/23 09:48:37;;;;;;;1.13;0.60;;;;;;;17.24;74.19;99585.84;5053976;28;19909;-82
2022/10/23 09:51:17;;;;;;;4.47;0.75;;;;;;;17.36;73.46;99579.97;5055818;28;20203;-83
2022/10/23 09:53:57;;;;;;;2.90;0.90;;;;;;;17.38;73.34;99581.13;5053168;28;20036;-83
2022/10/23 09:56:30;;;;;;;1.30;0.50;;;;;;;17.37;73.84;99574.06;5055068;28;20036;-83
2022/10/23 09:58:59;;;;;;;2.75;0.80;;;;;;;17.38;74.16;99583.09;5054584;28;20044;-82
2022/10/23 10:01:28;;;;;;;2.90;0.90;;;;;;;17.43;74.08;99585.47;5054298;28;20104;-84
2022/10/23 10:03:55;;;;;;;3.28;0.68;;;;;;;17.49;73.20;99572.09;5054733;28;20025;-82
2022/10/23 10:06:30;;;;;;;2.40;0.80;;;;;;;17.55;73.44;99570.53;5054654;28;20021;-83
2022/10/23 10:08:58;;;;;;;1.80;0.70;;;;;;;17.71;72.78;99571.72;5054176;28;20044;-84
2022/10/23 10:11:43;;;;;;;2.15;0.90;;;;;;;17.72;72.40;99572.50;5054250;28;20055;-82
2022/10/23 10:14:38;;;;;;;2.05;0.70;;;;;;;17.71;72.09;99571.72;5054255;28;20021;-83
2022/10/23 10:17:38;;;;;;;2.42;0.70;;;;;;;17.76;71.11;99566.97;5054141;28;20120;-83
2022/10/23 10:20:03;;;;;;;2.25;0.93;;;;;;;17.79;70.58;99564.22;5054292;28;20111;-84
2022/10/23 10:22:41;;;;;;;;;;;;;;;17.86;71.53;99563.44;5054793;28;20121;-82
2022/10/23 10:25:28;;;;;;;3.10;0.88;;;;;;;17.87;70.48;99553.97;5052993;28;19924;-82
2022/10/23 10:27:53;;;;;;;;;;;;;;;17.85;70.02;99545.34;5054367;28;20025;-82
2022/10/23 10:30:21;;;;;;;1.67;0.60;;;;;;;17.90;70.18;99551.22;5053946;28;19971;-82
2022/10/23 10:33:11;;;;;;;2.42;0.85;;;;;;;17.86;70.78;99547.69;5054324;28;20048;-82
2022/10/23 10:35:50;;;;;;;1.80;0.73;;;;;;;17.92;70.80;99540.56;5053815;28;20024;-81
2022/10/23 10:38:39;;;;;;;4.68;0.70;;;;;;;17.93;71.19;99533.09;5053413;28;20085;-82
2022/10/23 10:41:10;;;;;;;5.15;0.90;;;;;;;17.93;71.30;99522.88;5035684;28;20025;-82
2022/10/23 10:43:57;;;;;;;2.90;1.23;;;;;;;18.03;72.01;99529.53;5053981;28;20071;-81
2022/10/23 10:46:31;;;;;;;;;;;;;;;18.17;71.81;99528.72;5053087;28;20079;-80
2022/10/23 10:49:09;;;;;;;5.57;0.93;;;;;;;18.12;71.65;99526.34;5053467;28;19908;-82
2022/10/23 10:51:58;;;;;;;2.90;0.80;;;;;;;18.16;71.48;99524.38;5052987;28;20103;-83
2022/10/23 10:54:42;;;;;;;2.05;0.80;;;;;;;18.13;72.11;99512.16;5035651;28;20040;-83
2022/10/23 10:57:25;;;;;;;2.40;0.80;;;;;;;18.11;71.64;99508.25;5035330;28;20456;-82
2022/10/23 10:59:56;;;;;;;3.75;0.90;;;;;;;18.14;71.34;99496.41;5053006;28;20115;-83
2022/10/23 11:02:44;;;;;;;4.25;0.70;;;;;;;18.13;70.65;99489.34;5053159;28;20037;-83
2022/10/23 11:05:36;;;;;;;2.47;0.90;;;;;;;18.12;71.33;99483.03;5035259;28;20028;-82
2022/10/23 11:08:32;;;;;;;2.78;0.90;;;;;;;18.18;72.24;99480.69;5053159;28;20021;-82
2022/10/23 11:11:05;;;;;;;2.33;0.60;;;;;;;18.23;71.29;99472.78;5053125;28;20020;-82
2022/10/23 11:13:42;;;;;;;2.33;0.80;;;;;;;18.32;71.37;99464.88;5052997;28;20040;-82
2022/10/23 11:16:12;;;;;;;1.27;0.73;;;;;;;18.43;71.07;99464.00;5053003;28;20036;-82
2022/10/23 11:18:42;;;;;;;2.03;0.80;;;;;;;18.48;70.93;99458.88;5053162;28;20025;-82
2022/10/23 11:21:16;;;;;;;3.38;0.80;;;;;;;18.50;70.55;99447.44;5034891;28;20031;-82
2022/10/23 11:24:22;;;;;;;5.20;0.82;;;;;;;18.48;69.86;99449.81;5035006;28;20428;-82
2022/10/23 11:27:04;;;;;;;4.10;0.90;;;;;;;18.53;69.29;99443.84;5034914;28;20021;-82
2022/10/23 11:29:48;;;;;;;1.65;0.65;;;;;;;18.56;69.26;99440.28;5052840;28;20031;-82
2022/10/23 11:32:50;;;;;;;3.25;0.70;;;;;;;18.54;69.87;99428.88;5052661;28;20390;-81
2022/10/23 11:35:29;;;;;;;3.75;0.80;;;;;;;18.62;68.13;99416.59;5052509;28;20017;-82
2022/10/23 11:38:00;;;;;;;2.70;0.80;;;;;;;18.66;68.58;99411.13;5052331;28;20517;-82
2022/10/23 11:40:27;;;;;;;1.92;0.70;;;;;;;18.73;67.85;99413.81;5034839;28;20481;-82
2022/10/23 11:42:53;;;;;;;2.42;0.90;;;;;;;18.79;66.67;99410.19;5052973;28;20024;-81
2022/10/23 11:45:41;;;;;;;2.40;0.80;;;;;;;18.79;67.40;99404.69;5052249;28;20021;-80
2022/10/23 11:48:15;;;;;;;1.75;0.80;;;;;;;18.86;65.96;99409.38;5034709;28;20412;-80
2022/10/23 11:50:43;;;;;;;8.55;0.95;;;;;;;18.96;65.49;99402.16;5052942;28;20489;-85
2022/10/23 11:53:32;;;;;;;2.00;0.90;;;;;;;18.91;64.49;99395.91;5052944;28;20389;-84
2022/10/23 11:56:13;;;;;;;2.28;0.88;;;;;;;18.94;64.91;99395.09;5039904;28;20037;-85
2022/10/23 11:58:53;;;;;;;2.50;0.80;;;;;;;18.93;64.88;99393.53;5052753;28;20017;-86
2022/10/23 12:01:30;;;;;;;1.33;0.68;;;;;;;18.92;65.60;99396.69;5052493;28;20103;-84